sensor_id;sensor_type;location;lat;lon;timestamp;P1;durP1;ratioP1;P2;durP2;ratioP2
20890;SDS011;10605;52.968;8.844;2022-12-18T00:00:53;84.73;;;42.23;;
20890;SDS011;10605;52.968;8.844;2022-12-18T00:03:19;83.27;;;39.77;;
20890;SDS011;10605;52.968;8.844;2022-12-18T00:05:48;89.77;;;41.17;;
20890;SDS011;10605;52.968;8.844;2022-12-18T00:08:15;83.23;;;41.93;;
20890;SDS011;10605;52.968;8.844;2022-12-18T00:10:43;80.30;;;39.63;;
20890;SDS011;10605;52.968;8.844;2022-12-18T00:13:09;81.33;;;40.10;;
20890;SDS011;10605;52.968;8.844;2022-12-18T00:15:35;86.70;;;41.97;;
20890;SDS011;10605;52.968;8.844;2022-12-18T00:18:02;87.17;;;42.60;;
20890;SDS011;10605;52.968;8.844;2022-12-18T00:20:28;84.30;;;42.07;;
20890;SDS011;10605;52.968;8.844;2022-12-18T00:22:54;81.60;;;40.80;;
20890;SDS011;10605;52.968;8.844;2022-12-18T00:25:20;82.80;;;41.77;;
20890;SDS011;10605;52.968;8.844;2022-12-18T00:27:46;81.03;;;40.93;;
20890;SDS011;10605;52.968;8.844;2022-12-18T00:30:12;80.87;;;40.80;;
20890;SDS011;10605;52.968;8.844;2022-12-18T00:32:38;74.63;;;36.73;;
20890;SDS011;10605;52.968;8.844;2022-12-18T00:35:04;75.60;;;38.30;;
20890;SDS011;10605;52.968;8.844;2022-12-18T00:37:31;76.37;;;37.33;;
20890;SDS011;10605;52.968;8.844;2022-12-18T00:39:59;76.37;;;39.33;;
20890;SDS011;10605;52.968;8.844;2022-12-18T00:42:24;84.27;;;39.47;;
20890;SDS011;10605;52.968;8.844;2022-12-18T00:45:09;77.20;;;37.13;;
20890;SDS011;10605;52.968;8.844;2022-12-18T00:47:34;83.07;;;39.63;;
20890;SDS011;10605;52.968;8.844;2022-12-18T00:50:00;74.73;;;38.50;;
20890;SDS011;10605;52.968;8.844;2022-12-18T00:52:26;84.63;;;39.47;;
20890;SDS011;10605;52.968;8.844;2022-12-18T00:54:51;82.83;;;39.60;;
20890;SDS011;10605;52.968;8.844;2022-12-18T00:57:17;77.70;;;38.13;;
20890;SDS011;10605;52.968;8.844;2022-12-18T00:59:43;74.37;;;39.23;;
20890;SDS011;10605;52.968;8.844;2022-12-18T01:02:08;77.27;;;37.70;;
20890;SDS011;10605;52.968;8.844;2022-12-18T01:04:34;79.63;;;39.60;;
20890;SDS011;10605;52.968;8.844;2022-12-18T01:07:00;75.90;;;37.03;;
20890;SDS011;10605;52.968;8.844;2022-12-18T01:09:25;77.37;;;37.30;;
20890;SDS011;10605;52.968;8.844;2022-12-18T01:11:51;85.57;;;38.87;;
20890;SDS011;10605;52.968;8.844;2022-12-18T01:14:17;81.67;;;38.63;;
20890;SDS011;10605;52.968;8.844;2022-12-18T01:16:43;70.17;;;37.90;;
20890;SDS011;10605;52.968;8.844;2022-12-18T01:19:09;71.93;;;37.90;;
20890;SDS011;10605;52.968;8.844;2022-12-18T01:21:34;89.43;;;39.70;;
20890;SDS011;10605;52.968;8.844;2022-12-18T01:24:00;76.50;;;40.27;;
20890;SDS011;10605;52.968;8.844;2022-12-18T01:26:26;75.23;;;38.73;;
20890;SDS011;10605;52.968;8.844;2022-12-18T01:28:54;77.67;;;39.33;;
20890;SDS011;10605;52.968;8.844;2022-12-18T01:31:25;83.07;;;39.93;;
20890;SDS011;10605;52.968;8.844;2022-12-18T01:33:53;78.23;;;38.93;;
20890;SDS011;10605;52.968;8.844;2022-12-18T01:36:29;76.13;;;39.00;;
20890;SDS011;10605;52.968;8.844;2022-12-18T01:38:56;81.40;;;37.40;;
20890;SDS011;10605;52.968;8.844;2022-12-18T01:41:25;81.23;;;37.93;;
20890;SDS011;10605;52.968;8.844;2022-12-18T01:50:11;72.60;;;36.27;;
20890;SDS011;10605;52.968;8.844;2022-12-18T01:52:41;68.80;;;36.20;;
20890;SDS011;10605;52.968;8.844;2022-12-18T01:55:10;72.33;;;36.53;;
20890;SDS011;10605;52.968;8.844;2022-12-18T01:57:37;66.83;;;35.33;;
20890;SDS011;10605;52.968;8.844;2022-12-18T02:00:12;75.27;;;36.57;;
20890;SDS011;10605;52.968;8.844;2022-12-18T02:02:40;71.97;;;34.70;;
20890;SDS011;10605;52.968;8.844;2022-12-18T02:05:07;69.90;;;35.97;;
20890;SDS011;10605;52.968;8.844;2022-12-18T02:10:29;72.27;;;35.47;;
20890;SDS011;10605;52.968;8.844;2022-12-18T02:19:00;63.97;;;31.87;;
20890;SDS011;10605;52.968;8.844;2022-12-18T02:24:41;67.53;;;33.73;;
20890;SDS011;10605;52.968;8.844;2022-12-18T02:27:11;70.80;;;34.43;;
20890;SDS011;10605;52.968;8.844;2022-12-18T02:29:46;66.97;;;32.67;;
20890;SDS011;10605;52.968;8.844;2022-12-18T02:32:27;66.00;;;32.47;;
20890;SDS011;10605;52.968;8.844;2022-12-18T02:34:56;69.57;;;33.13;;
20890;SDS011;10605;52.968;8.844;2022-12-18T02:37:24;67.60;;;33.07;;
20890;SDS011;10605;52.968;8.844;2022-12-18T02:39:52;67.40;;;31.83;;
20890;SDS011;10605;52.968;8.844;2022-12-18T02:42:21;67.07;;;31.70;;
20890;SDS011;10605;52.968;8.844;2022-12-18T02:44:49;54.33;;;30.37;;
20890;SDS011;10605;52.968;8.844;2022-12-18T02:47:30;63.70;;;30.33;;
20890;SDS011;10605;52.968;8.844;2022-12-18T02:50:05;66.43;;;29.10;;
20890;SDS011;10605;52.968;8.844;2022-12-18T02:57:54;60.57;;;28.87;;
20890;SDS011;10605;52.968;8.844;2022-12-18T03:00:36;55.17;;;28.80;;
20890;SDS011;10605;52.968;8.844;2022-12-18T03:03:11;53.83;;;27.30;;
20890;SDS011;10605;52.968;8.844;2022-12-18T03:08:22;59.33;;;29.83;;
20890;SDS011;10605;52.968;8.844;2022-12-18T03:11:11;57.70;;;27.97;;
20890;SDS011;10605;52.968;8.844;2022-12-18T03:16:15;57.77;;;28.13;;
20890;SDS011;10605;52.968;8.844;2022-12-18T03:18:57;55.47;;;28.63;;
20890;SDS011;10605;52.968;8.844;2022-12-18T03:21:28;54.67;;;28.23;;
20890;SDS011;10605;52.968;8.844;2022-12-18T03:23:59;57.37;;;29.50;;
20890;SDS011;10605;52.968;8.844;2022-12-18T03:26:26;57.33;;;27.10;;
20890;SDS011;10605;52.968;8.844;2022-12-18T03:28:53;59.90;;;27.53;;
20890;SDS011;10605;52.968;8.844;2022-12-18T03:31:24;55.60;;;26.73;;
20890;SDS011;10605;52.968;8.844;2022-12-18T03:33:54;57.33;;;27.97;;
20890;SDS011;10605;52.968;8.844;2022-12-18T03:36:22;64.67;;;29.03;;
20890;SDS011;10605;52.968;8.844;2022-12-18T03:38:48;52.10;;;28.53;;
20890;SDS011;10605;52.968;8.844;2022-12-18T03:46:46;53.37;;;27.53;;
20890;SDS011;10605;52.968;8.844;2022-12-18T03:49:36;56.23;;;27.70;;
20890;SDS011;10605;52.968;8.844;2022-12-18T03:52:11;48.20;;;25.20;;
20890;SDS011;10605;52.968;8.844;2022-12-18T03:54:45;51.50;;;25.57;;
20890;SDS011;10605;52.968;8.844;2022-12-18T03:57:19;54.27;;;25.83;;
20890;SDS011;10605;52.968;8.844;2022-12-18T03:59:47;48.70;;;26.23;;
20890;SDS011;10605;52.968;8.844;2022-12-18T04:02:16;58.17;;;27.60;;
20890;SDS011;10605;52.968;8.844;2022-12-18T04:04:43;52.20;;;26.73;;
20890;SDS011;10605;52.968;8.844;2022-12-18T04:07:12;53.53;;;27.97;;
20890;SDS011;10605;52.968;8.844;2022-12-18T04:09:39;54.00;;;27.53;;
20890;SDS011;10605;52.968;8.844;2022-12-18T04:12:06;59.93;;;27.23;;
20890;SDS011;10605;52.968;8.844;2022-12-18T04:14:33;52.67;;;26.03;;
20890;SDS011;10605;52.968;8.844;2022-12-18T04:17:00;53.60;;;26.37;;
20890;SDS011;10605;52.968;8.844;2022-12-18T04:19:27;48.80;;;26.13;;
20890;SDS011;10605;52.968;8.844;2022-12-18T04:21:53;51.07;;;26.20;;
20890;SDS011;10605;52.968;8.844;2022-12-18T04:24:18;47.63;;;25.80;;
20890;SDS011;10605;52.968;8.844;2022-12-18T04:26:44;50.03;;;25.60;;
20890;SDS011;10605;52.968;8.844;2022-12-18T04:29:10;48.07;;;25.07;;
20890;SDS011;10605;52.968;8.844;2022-12-18T04:31:35;48.83;;;25.97;;
20890;SDS011;10605;52.968;8.844;2022-12-18T04:34:01;50.03;;;26.13;;
20890;SDS011;10605;52.968;8.844;2022-12-18T04:36:27;46.77;;;25.73;;
20890;SDS011;10605;52.968;8.844;2022-12-18T04:38:52;45.80;;;24.57;;
20890;SDS011;10605;52.968;8.844;2022-12-18T04:41:18;44.60;;;24.87;;
20890;SDS011;10605;52.968;8.844;2022-12-18T04:43:44;49.70;;;24.57;;
20890;SDS011;10605;52.968;8.844;2022-12-18T04:46:09;50.97;;;25.50;;
20890;SDS011;10605;52.968;8.844;2022-12-18T04:48:35;44.00;;;25.40;;
20890;SDS011;10605;52.968;8.844;2022-12-18T04:51:01;54.97;;;24.83;;
20890;SDS011;10605;52.968;8.844;2022-12-18T04:53:29;46.43;;;24.40;;
20890;SDS011;10605;52.968;8.844;2022-12-18T04:56:09;47.27;;;24.43;;
20890;SDS011;10605;52.968;8.844;2022-12-18T04:58:36;44.60;;;24.10;;
20890;SDS011;10605;52.968;8.844;2022-12-18T05:01:04;47.37;;;22.80;;
20890;SDS011;10605;52.968;8.844;2022-12-18T05:03:31;47.17;;;23.70;;
20890;SDS011;10605;52.968;8.844;2022-12-18T05:05:56;40.43;;;23.57;;
20890;SDS011;10605;52.968;8.844;2022-12-18T05:08:22;41.60;;;22.33;;
20890;SDS011;10605;52.968;8.844;2022-12-18T05:10:48;47.20;;;23.47;;
20890;SDS011;10605;52.968;8.844;2022-12-18T05:13:14;50.63;;;23.67;;
20890;SDS011;10605;52.968;8.844;2022-12-18T05:15:39;43.03;;;23.60;;
20890;SDS011;10605;52.968;8.844;2022-12-18T05:18:07;41.07;;;22.33;;
20890;SDS011;10605;52.968;8.844;2022-12-18T05:20:33;40.30;;;22.80;;
20890;SDS011;10605;52.968;8.844;2022-12-18T05:22:59;42.47;;;23.33;;
20890;SDS011;10605;52.968;8.844;2022-12-18T05:25:24;43.10;;;22.37;;
20890;SDS011;10605;52.968;8.844;2022-12-18T05:27:50;43.23;;;22.60;;
20890;SDS011;10605;52.968;8.844;2022-12-18T05:30:16;45.27;;;23.10;;
20890;SDS011;10605;52.968;8.844;2022-12-18T05:32:42;41.53;;;23.00;;
20890;SDS011;10605;52.968;8.844;2022-12-18T05:35:08;38.03;;;21.80;;
20890;SDS011;10605;52.968;8.844;2022-12-18T05:37:35;40.13;;;21.70;;
20890;SDS011;10605;52.968;8.844;2022-12-18T05:40:01;43.97;;;21.17;;
20890;SDS011;10605;52.968;8.844;2022-12-18T05:42:28;43.07;;;22.00;;
20890;SDS011;10605;52.968;8.844;2022-12-18T05:44:53;42.63;;;21.07;;
20890;SDS011;10605;52.968;8.844;2022-12-18T05:47:19;39.27;;;21.67;;
20890;SDS011;10605;52.968;8.844;2022-12-18T05:49:45;32.60;;;20.63;;
20890;SDS011;10605;52.968;8.844;2022-12-18T05:52:10;39.20;;;21.03;;
20890;SDS011;10605;52.968;8.844;2022-12-18T05:54:37;34.70;;;19.63;;
20890;SDS011;10605;52.968;8.844;2022-12-18T05:57:03;38.57;;;20.13;;
20890;SDS011;10605;52.968;8.844;2022-12-18T05:59:28;38.90;;;20.40;;
20890;SDS011;10605;52.968;8.844;2022-12-18T06:01:54;36.90;;;19.67;;
20890;SDS011;10605;52.968;8.844;2022-12-18T06:04:20;37.27;;;19.83;;
20890;SDS011;10605;52.968;8.844;2022-12-18T06:06:45;37.00;;;19.93;;
20890;SDS011;10605;52.968;8.844;2022-12-18T06:09:11;37.27;;;19.67;;
20890;SDS011;10605;52.968;8.844;2022-12-18T06:11:37;37.43;;;20.27;;
20890;SDS011;10605;52.968;8.844;2022-12-18T06:14:04;31.67;;;18.80;;
20890;SDS011;10605;52.968;8.844;2022-12-18T06:16:30;38.23;;;18.40;;
20890;SDS011;10605;52.968;8.844;2022-12-18T06:18:57;38.60;;;18.87;;
20890;SDS011;10605;52.968;8.844;2022-12-18T06:21:23;32.70;;;18.50;;
20890;SDS011;10605;52.968;8.844;2022-12-18T06:23:49;34.50;;;18.40;;
20890;SDS011;10605;52.968;8.844;2022-12-18T06:26:15;35.77;;;18.47;;
20890;SDS011;10605;52.968;8.844;2022-12-18T06:28:40;39.63;;;18.70;;
20890;SDS011;10605;52.968;8.844;2022-12-18T06:31:06;33.77;;;17.03;;
20890;SDS011;10605;52.968;8.844;2022-12-18T06:33:33;32.90;;;17.80;;
20890;SDS011;10605;52.968;8.844;2022-12-18T06:36:00;31.83;;;17.80;;
20890;SDS011;10605;52.968;8.844;2022-12-18T06:38:28;36.60;;;19.20;;
20890;SDS011;10605;52.968;8.844;2022-12-18T06:40:53;35.63;;;19.20;;
20890;SDS011;10605;52.968;8.844;2022-12-18T06:43:19;34.27;;;18.47;;
20890;SDS011;10605;52.968;8.844;2022-12-18T06:45:45;30.90;;;17.87;;
20890;SDS011;10605;52.968;8.844;2022-12-18T06:48:14;32.00;;;17.23;;
20890;SDS011;10605;52.968;8.844;2022-12-18T06:50:41;33.60;;;18.93;;
20890;SDS011;10605;52.968;8.844;2022-12-18T06:53:07;32.33;;;18.00;;
20890;SDS011;10605;52.968;8.844;2022-12-18T06:55:33;37.13;;;18.83;;
20890;SDS011;10605;52.968;8.844;2022-12-18T06:57:58;41.27;;;18.57;;
20890;SDS011;10605;52.968;8.844;2022-12-18T07:00:24;30.57;;;18.27;;
20890;SDS011;10605;52.968;8.844;2022-12-18T07:02:50;35.03;;;18.70;;
20890;SDS011;10605;52.968;8.844;2022-12-18T07:05:15;35.57;;;18.80;;
20890;SDS011;10605;52.968;8.844;2022-12-18T07:07:41;34.50;;;18.33;;
20890;SDS011;10605;52.968;8.844;2022-12-18T07:10:07;38.77;;;18.70;;
20890;SDS011;10605;52.968;8.844;2022-12-18T07:12:33;34.80;;;17.63;;
20890;SDS011;10605;52.968;8.844;2022-12-18T07:14:58;42.47;;;18.97;;
20890;SDS011;10605;52.968;8.844;2022-12-18T07:17:24;31.50;;;17.93;;
20890;SDS011;10605;52.968;8.844;2022-12-18T07:19:49;32.63;;;18.47;;
20890;SDS011;10605;52.968;8.844;2022-12-18T07:22:15;39.43;;;18.67;;
20890;SDS011;10605;52.968;8.844;2022-12-18T07:24:41;32.23;;;18.83;;
20890;SDS011;10605;52.968;8.844;2022-12-18T07:27:07;34.00;;;19.30;;
20890;SDS011;10605;52.968;8.844;2022-12-18T07:29:32;32.40;;;18.30;;
20890;SDS011;10605;52.968;8.844;2022-12-18T07:31:58;32.70;;;19.23;;
20890;SDS011;10605;52.968;8.844;2022-12-18T07:34:23;35.37;;;19.20;;
20890;SDS011;10605;52.968;8.844;2022-12-18T07:36:49;35.90;;;20.33;;
20890;SDS011;10605;52.968;8.844;2022-12-18T07:39:15;33.77;;;19.67;;
20890;SDS011;10605;52.968;8.844;2022-12-18T07:41:40;34.90;;;17.97;;
20890;SDS011;10605;52.968;8.844;2022-12-18T07:44:10;31.87;;;18.97;;
20890;SDS011;10605;52.968;8.844;2022-12-18T07:46:37;34.80;;;19.37;;
20890;SDS011;10605;52.968;8.844;2022-12-18T07:49:03;35.80;;;19.20;;
20890;SDS011;10605;52.968;8.844;2022-12-18T07:51:29;41.30;;;20.20;;
20890;SDS011;10605;52.968;8.844;2022-12-18T07:53:55;39.33;;;20.17;;
20890;SDS011;10605;52.968;8.844;2022-12-18T07:56:21;38.47;;;20.17;;
20890;SDS011;10605;52.968;8.844;2022-12-18T07:58:47;40.63;;;20.50;;
20890;SDS011;10605;52.968;8.844;2022-12-18T08:01:12;41.33;;;20.27;;
20890;SDS011;10605;52.968;8.844;2022-12-18T08:03:39;38.30;;;20.30;;
20890;SDS011;10605;52.968;8.844;2022-12-18T08:06:06;39.27;;;20.90;;
20890;SDS011;10605;52.968;8.844;2022-12-18T08:08:33;38.57;;;20.80;;
20890;SDS011;10605;52.968;8.844;2022-12-18T08:11:00;40.50;;;20.87;;
20890;SDS011;10605;52.968;8.844;2022-12-18T08:13:26;38.03;;;21.50;;
20890;SDS011;10605;52.968;8.844;2022-12-18T08:15:56;40.07;;;21.57;;
20890;SDS011;10605;52.968;8.844;2022-12-18T08:18:29;40.23;;;20.93;;
20890;SDS011;10605;52.968;8.844;2022-12-18T08:20:57;39.77;;;21.13;;
20890;SDS011;10605;52.968;8.844;2022-12-18T08:23:31;36.93;;;21.53;;
20890;SDS011;10605;52.968;8.844;2022-12-18T08:25:58;42.60;;;22.47;;
20890;SDS011;10605;52.968;8.844;2022-12-18T08:28:23;41.20;;;23.10;;
20890;SDS011;10605;52.968;8.844;2022-12-18T08:30:51;46.83;;;23.17;;
20890;SDS011;10605;52.968;8.844;2022-12-18T08:33:17;42.50;;;22.03;;
20890;SDS011;10605;52.968;8.844;2022-12-18T08:35:43;43.23;;;23.10;;
20890;SDS011;10605;52.968;8.844;2022-12-18T08:38:08;46.93;;;23.87;;
20890;SDS011;10605;52.968;8.844;2022-12-18T08:40:34;44.83;;;22.93;;
20890;SDS011;10605;52.968;8.844;2022-12-18T08:42:59;39.87;;;21.77;;
20890;SDS011;10605;52.968;8.844;2022-12-18T08:45:44;33.60;;;20.90;;
20890;SDS011;10605;52.968;8.844;2022-12-18T08:48:09;32.33;;;20.07;;
20890;SDS011;10605;52.968;8.844;2022-12-18T08:50:35;35.30;;;19.87;;
20890;SDS011;10605;52.968;8.844;2022-12-18T08:53:01;31.63;;;18.57;;
20890;SDS011;10605;52.968;8.844;2022-12-18T08:55:27;31.47;;;19.60;;
20890;SDS011;10605;52.968;8.844;2022-12-18T08:57:52;29.80;;;18.50;;
20890;SDS011;10605;52.968;8.844;2022-12-18T09:00:18;33.67;;;18.70;;
20890;SDS011;10605;52.968;8.844;2022-12-18T09:02:44;30.03;;;17.77;;
20890;SDS011;10605;52.968;8.844;2022-12-18T09:05:10;28.27;;;17.50;;
20890;SDS011;10605;52.968;8.844;2022-12-18T09:07:36;25.83;;;17.27;;
20890;SDS011;10605;52.968;8.844;2022-12-18T09:10:01;28.03;;;17.33;;
20890;SDS011;10605;52.968;8.844;2022-12-18T09:12:27;27.27;;;16.87;;
20890;SDS011;10605;52.968;8.844;2022-12-18T09:14:53;33.17;;;18.23;;
20890;SDS011;10605;52.968;8.844;2022-12-18T09:17:19;30.80;;;17.53;;
20890;SDS011;10605;52.968;8.844;2022-12-18T09:19:44;27.47;;;16.60;;
20890;SDS011;10605;52.968;8.844;2022-12-18T09:22:10;32.23;;;18.07;;
20890;SDS011;10605;52.968;8.844;2022-12-18T09:24:35;33.50;;;16.40;;
20890;SDS011;10605;52.968;8.844;2022-12-18T09:27:01;26.13;;;16.00;;
20890;SDS011;10605;52.968;8.844;2022-12-18T09:29:27;24.33;;;14.90;;
20890;SDS011;10605;52.968;8.844;2022-12-18T09:31:53;27.50;;;16.20;;
20890;SDS011;10605;52.968;8.844;2022-12-18T09:34:19;23.33;;;15.67;;
20890;SDS011;10605;52.968;8.844;2022-12-18T09:36:46;23.93;;;14.50;;
20890;SDS011;10605;52.968;8.844;2022-12-18T09:39:12;26.47;;;15.83;;
20890;SDS011;10605;52.968;8.844;2022-12-18T09:41:50;21.27;;;14.27;;
20890;SDS011;10605;52.968;8.844;2022-12-18T09:44:28;24.43;;;15.27;;
20890;SDS011;10605;52.968;8.844;2022-12-18T09:50:03;24.20;;;15.63;;
20890;SDS011;10605;52.968;8.844;2022-12-18T09:52:39;27.47;;;16.53;;
20890;SDS011;10605;52.968;8.844;2022-12-18T09:57:35;24.23;;;15.87;;
20890;SDS011;10605;52.968;8.844;2022-12-18T10:02:39;23.03;;;15.93;;
20890;SDS011;10605;52.968;8.844;2022-12-18T10:05:10;24.57;;;15.43;;
20890;SDS011;10605;52.968;8.844;2022-12-18T10:10:37;24.57;;;16.63;;
20890;SDS011;10605;52.968;8.844;2022-12-18T10:13:09;24.13;;;15.73;;
20890;SDS011;10605;52.968;8.844;2022-12-18T10:15:45;27.70;;;15.93;;
20890;SDS011;10605;52.968;8.844;2022-12-18T10:21:37;23.97;;;15.97;;
20890;SDS011;10605;52.968;8.844;2022-12-18T10:24:23;23.93;;;16.33;;
20890;SDS011;10605;52.968;8.844;2022-12-18T10:27:11;24.80;;;15.43;;
20890;SDS011;10605;52.968;8.844;2022-12-18T10:29:42;24.00;;;16.33;;
20890;SDS011;10605;52.968;8.844;2022-12-18T10:32:13;22.90;;;15.53;;
20890;SDS011;10605;52.968;8.844;2022-12-18T10:34:44;24.47;;;16.20;;
20890;SDS011;10605;52.968;8.844;2022-12-18T10:37:21;24.83;;;15.13;;
20890;SDS011;10605;52.968;8.844;2022-12-18T10:42:39;22.97;;;15.33;;
20890;SDS011;10605;52.968;8.844;2022-12-18T10:45:14;20.30;;;14.80;;
20890;SDS011;10605;52.968;8.844;2022-12-18T10:47:47;22.00;;;14.67;;
20890;SDS011;10605;52.968;8.844;2022-12-18T10:52:52;25.73;;;15.10;;
20890;SDS011;10605;52.968;8.844;2022-12-18T10:55:20;25.60;;;14.43;;
20890;SDS011;10605;52.968;8.844;2022-12-18T10:57:46;20.13;;;14.87;;
20890;SDS011;10605;52.968;8.844;2022-12-18T11:00:22;23.07;;;14.43;;
20890;SDS011;10605;52.968;8.844;2022-12-18T11:02:53;24.73;;;15.43;;
20890;SDS011;10605;52.968;8.844;2022-12-18T11:07:57;24.73;;;16.90;;
20890;SDS011;10605;52.968;8.844;2022-12-18T11:10:31;23.40;;;14.93;;
20890;SDS011;10605;52.968;8.844;2022-12-18T11:13:11;21.40;;;15.63;;
20890;SDS011;10605;52.968;8.844;2022-12-18T11:15:42;26.50;;;15.90;;
20890;SDS011;10605;52.968;8.844;2022-12-18T11:20:55;26.83;;;15.97;;
20890;SDS011;10605;52.968;8.844;2022-12-18T11:23:26;25.27;;;16.03;;
20890;SDS011;10605;52.968;8.844;2022-12-18T11:25:54;26.67;;;16.13;;
20890;SDS011;10605;52.968;8.844;2022-12-18T11:28:40;24.60;;;16.37;;
20890;SDS011;10605;52.968;8.844;2022-12-18T11:33:52;26.53;;;16.53;;
20890;SDS011;10605;52.968;8.844;2022-12-18T11:36:19;23.17;;;16.23;;
20890;SDS011;10605;52.968;8.844;2022-12-18T11:38:47;26.30;;;17.10;;
20890;SDS011;10605;52.968;8.844;2022-12-18T11:41:21;21.67;;;14.83;;
20890;SDS011;10605;52.968;8.844;2022-12-18T11:44:28;24.07;;;15.30;;
20890;SDS011;10605;52.968;8.844;2022-12-18T11:47:01;24.33;;;16.10;;
20890;SDS011;10605;52.968;8.844;2022-12-18T11:49:34;23.40;;;15.30;;
20890;SDS011;10605;52.968;8.844;2022-12-18T11:52:15;22.47;;;15.63;;
20890;SDS011;10605;52.968;8.844;2022-12-18T11:54:55;24.37;;;14.90;;
20890;SDS011;10605;52.968;8.844;2022-12-18T12:02:52;26.67;;;16.33;;
20890;SDS011;10605;52.968;8.844;2022-12-18T12:08:19;25.70;;;16.07;;
20890;SDS011;10605;52.968;8.844;2022-12-18T12:19:36;25.47;;;15.27;;
20890;SDS011;10605;52.968;8.844;2022-12-18T12:22:18;25.17;;;15.98;;
20890;SDS011;10605;52.968;8.844;2022-12-18T12:33:19;22.53;;;14.77;;
20890;SDS011;10605;52.968;8.844;2022-12-18T12:36:10;19.30;;;14.83;;
20890;SDS011;10605;52.968;8.844;2022-12-18T12:38:57;22.47;;;15.17;;
20890;SDS011;10605;52.968;8.844;2022-12-18T12:41:30;25.00;;;15.10;;
20890;SDS011;10605;52.968;8.844;2022-12-18T12:44:27;22.20;;;14.67;;
20890;SDS011;10605;52.968;8.844;2022-12-18T12:46:58;22.20;;;16.30;;
20890;SDS011;10605;52.968;8.844;2022-12-18T12:49:30;25.13;;;15.50;;
20890;SDS011;10605;52.968;8.844;2022-12-18T12:54:31;22.37;;;15.77;;
20890;SDS011;10605;52.968;8.844;2022-12-18T13:00:17;24.33;;;14.77;;
20890;SDS011;10605;52.968;8.844;2022-12-18T13:02:50;21.60;;;13.97;;
20890;SDS011;10605;52.968;8.844;2022-12-18T13:05:34;20.13;;;14.40;;
20890;SDS011;10605;52.968;8.844;2022-12-18T13:08:23;20.03;;;15.10;;
20890;SDS011;10605;52.968;8.844;2022-12-18T13:10:51;21.37;;;14.17;;
20890;SDS011;10605;52.968;8.844;2022-12-18T13:13:52;24.47;;;14.97;;
20890;SDS011;10605;52.968;8.844;2022-12-18T13:16:20;27.00;;;14.27;;
20890;SDS011;10605;52.968;8.844;2022-12-18T13:18:57;24.08;;;15.18;;
20890;SDS011;10605;52.968;8.844;2022-12-18T13:23:57;20.63;;;14.93;;
20890;SDS011;10605;52.968;8.844;2022-12-18T13:26:40;23.40;;;15.53;;
20890;SDS011;10605;52.968;8.844;2022-12-18T13:29:06;22.10;;;14.73;;
20890;SDS011;10605;52.968;8.844;2022-12-18T13:36:44;23.37;;;15.77;;
20890;SDS011;10605;52.968;8.844;2022-12-18T13:41:39;20.90;;;14.87;;
20890;SDS011;10605;52.968;8.844;2022-12-18T13:46:50;23.20;;;14.63;;
20890;SDS011;10605;52.968;8.844;2022-12-18T13:52:00;28.43;;;16.10;;
20890;SDS011;10605;52.968;8.844;2022-12-18T13:54:32;21.57;;;15.73;;
20890;SDS011;10605;52.968;8.844;2022-12-18T13:57:22;20.03;;;15.03;;
20890;SDS011;10605;52.968;8.844;2022-12-18T13:59:50;24.00;;;16.58;;
20890;SDS011;10605;52.968;8.844;2022-12-18T14:02:17;25.67;;;16.00;;
20890;SDS011;10605;52.968;8.844;2022-12-18T14:04:47;32.80;;;16.40;;
20890;SDS011;10605;52.968;8.844;2022-12-18T14:07:14;26.20;;;16.77;;
20890;SDS011;10605;52.968;8.844;2022-12-18T14:09:51;25.17;;;16.37;;
20890;SDS011;10605;52.968;8.844;2022-12-18T14:12:25;25.93;;;16.00;;
20890;SDS011;10605;52.968;8.844;2022-12-18T14:20:57;27.07;;;15.03;;
20890;SDS011;10605;52.968;8.844;2022-12-18T14:23:45;23.17;;;14.77;;
20890;SDS011;10605;52.968;8.844;2022-12-18T14:26:26;22.63;;;15.00;;
20890;SDS011;10605;52.968;8.844;2022-12-18T14:28:57;22.50;;;14.07;;
20890;SDS011;10605;52.968;8.844;2022-12-18T14:31:26;22.53;;;14.60;;
20890;SDS011;10605;52.968;8.844;2022-12-18T14:33:53;19.70;;;14.70;;
20890;SDS011;10605;52.968;8.844;2022-12-18T14:36:20;20.70;;;13.83;;
20890;SDS011;10605;52.968;8.844;2022-12-18T14:38:54;17.67;;;13.43;;
20890;SDS011;10605;52.968;8.844;2022-12-18T14:41:23;26.33;;;12.77;;
20890;SDS011;10605;52.968;8.844;2022-12-18T14:43:51;18.40;;;13.33;;
20890;SDS011;10605;52.968;8.844;2022-12-18T14:46:36;17.80;;;12.73;;
20890;SDS011;10605;52.968;8.844;2022-12-18T14:49:17;21.52;;;13.57;;
20890;SDS011;10605;52.968;8.844;2022-12-18T14:51:50;25.70;;;13.70;;
20890;SDS011;10605;52.968;8.844;2022-12-18T14:54:28;19.73;;;14.00;;
20890;SDS011;10605;52.968;8.844;2022-12-18T15:00:03;18.07;;;13.33;;
20890;SDS011;10605;52.968;8.844;2022-12-18T15:02:30;21.10;;;13.70;;
20890;SDS011;10605;52.968;8.844;2022-12-18T15:04:59;23.13;;;14.00;;
20890;SDS011;10605;52.968;8.844;2022-12-18T15:07:38;22.53;;;13.13;;
20890;SDS011;10605;52.968;8.844;2022-12-18T15:10:11;25.20;;;13.70;;
20890;SDS011;10605;52.968;8.844;2022-12-18T15:12:44;21.53;;;13.53;;
20890;SDS011;10605;52.968;8.844;2022-12-18T15:20:26;27.00;;;14.07;;
20890;SDS011;10605;52.968;8.844;2022-12-18T15:22:52;21.93;;;13.30;;
20890;SDS011;10605;52.968;8.844;2022-12-18T15:27:56;22.60;;;13.87;;
20890;SDS011;10605;52.968;8.844;2022-12-18T15:30:23;20.13;;;13.27;;
20890;SDS011;10605;52.968;8.844;2022-12-18T15:32:50;21.00;;;13.17;;
20890;SDS011;10605;52.968;8.844;2022-12-18T15:35:18;27.87;;;14.00;;
20890;SDS011;10605;52.968;8.844;2022-12-18T15:37:45;23.33;;;13.33;;
20890;SDS011;10605;52.968;8.844;2022-12-18T15:40:12;24.90;;;13.43;;
20890;SDS011;10605;52.968;8.844;2022-12-18T15:42:39;19.63;;;12.77;;
20890;SDS011;10605;52.968;8.844;2022-12-18T15:45:24;22.60;;;12.90;;
20890;SDS011;10605;52.968;8.844;2022-12-18T15:47:49;24.00;;;14.03;;
20890;SDS011;10605;52.968;8.844;2022-12-18T15:50:15;22.00;;;14.00;;
20890;SDS011;10605;52.968;8.844;2022-12-18T15:52:41;25.13;;;13.67;;
20890;SDS011;10605;52.968;8.844;2022-12-18T15:55:16;22.07;;;14.53;;
20890;SDS011;10605;52.968;8.844;2022-12-18T15:58:03;25.47;;;13.70;;
20890;SDS011;10605;52.968;8.844;2022-12-18T16:00:29;28.00;;;14.83;;
20890;SDS011;10605;52.968;8.844;2022-12-18T16:02:55;24.97;;;14.77;;
20890;SDS011;10605;52.968;8.844;2022-12-18T16:05:21;27.53;;;14.17;;
20890;SDS011;10605;52.968;8.844;2022-12-18T16:07:48;25.87;;;15.53;;
20890;SDS011;10605;52.968;8.844;2022-12-18T16:10:14;23.90;;;14.00;;
20890;SDS011;10605;52.968;8.844;2022-12-18T16:12:40;26.97;;;14.03;;
20890;SDS011;10605;52.968;8.844;2022-12-18T16:15:07;21.70;;;13.60;;
20890;SDS011;10605;52.968;8.844;2022-12-18T16:17:35;23.23;;;12.53;;
20890;SDS011;10605;52.968;8.844;2022-12-18T16:20:01;20.73;;;13.83;;
20890;SDS011;10605;52.968;8.844;2022-12-18T16:22:28;22.20;;;12.80;;
20890;SDS011;10605;52.968;8.844;2022-12-18T16:24:55;18.20;;;12.43;;
20890;SDS011;10605;52.968;8.844;2022-12-18T16:27:22;24.23;;;13.63;;
20890;SDS011;10605;52.968;8.844;2022-12-18T16:29:49;26.90;;;13.80;;
20890;SDS011;10605;52.968;8.844;2022-12-18T16:32:16;19.23;;;12.97;;
20890;SDS011;10605;52.968;8.844;2022-12-18T16:34:43;24.40;;;14.20;;
20890;SDS011;10605;52.968;8.844;2022-12-18T16:37:10;22.57;;;13.23;;
20890;SDS011;10605;52.968;8.844;2022-12-18T16:39:38;23.90;;;13.53;;